Time;durP1;ratioP1;P1;durP2;ratioP2;P2;SDS_P1;SDS_P2;PMS_P1;PMS_P2;Temp;Humidity;BMP_temperature;BMP_pressure;BME280_temperature;BME280_humidity;BME280_pressure;Samples;Min_cycle;Max_cycle;Signal;HPM_P1;HPM_P2
2022/01/31 00:07:33;;;;;;;5.22;2.97;;;;;;;17.24;54.49;101334.38;5997561;23;20001;-84
2022/01/31 00:40:49;;;;;;;5.88;2.80;;;;;;;17.24;54.03;101185.28;5482544;23;20058;-83
2022/01/31 01:01:22;;;;;;;4.65;2.25;;;;;;;17.19;53.84;101101.22;5271292;23;20057;-81
2022/01/31 01:03:52;;;;;;;5.15;2.38;;;;;;;17.19;53.67;101096.88;5024175;28;20031;-82
2022/01/31 01:06:32;;;;;;;6.32;2.80;;;;;;;17.21;53.66;101078.66;5045611;28;20021;-81
2022/01/31 01:09:01;;;;;;;4.60;2.17;;;;;;;17.20;53.65;101074.31;5026669;28;20107;-81
2022/01/31 01:11:28;;;;;;;6.05;2.63;;;;;;;17.20;53.70;101067.41;5010390;28;20041;-82
2022/01/31 01:14:05;;;;;;;7.40;2.45;;;;;;;17.20;53.76;101064.81;5045159;28;20033;-81
2022/01/31 01:16:31;;;;;;;4.15;2.10;;;;;;;17.19;53.76;101054.41;5046011;28;20029;-81
2022/01/31 01:18:58;;;;;;;6.40;2.08;;;;;;;17.20;53.42;101053.50;5028947;28;20029;-81
2022/01/31 01:21:31;;;;;;;5.07;2.05;;;;;;;17.20;53.85;101050.91;5048584;28;20034;-82
2022/01/31 01:23:57;;;;;;;5.55;2.58;;;;;;;17.19;53.68;101055.25;5028437;28;20467;-81
2022/01/31 01:26:23;;;;;;;4.05;1.98;;;;;;;17.17;53.72;101046.59;5044113;28;20486;-81
2022/01/31 01:28:49;;;;;;;6.32;2.70;;;;;;;17.19;53.50;101033.59;5026535;28;20021;-81
2022/01/31 01:31:17;;;;;;;5.85;2.35;;;;;;;17.18;53.53;101037.94;5022445;28;20037;-81
2022/01/31 02:38:10;;;;;;;5.72;2.13;;;;;;;17.15;53.19;100922.66;5061754;23;20066;-80
2022/01/31 02:40:35;;;;;;;4.20;2.20;;;;;;;17.15;53.08;100913.13;4969686;28;20403;-82
2022/01/31 02:43:01;;;;;;;4.45;1.98;;;;;;;17.15;53.15;100902.72;4969910;28;20031;-81
2022/01/31 02:45:27;;;;;;;4.63;2.38;;;;;;;17.16;53.08;100914.84;5003765;28;20084;-82
2022/01/31 02:47:55;;;;;;;5.22;1.95;;;;;;;17.15;53.26;100918.31;5003454;28;20038;-80
2022/01/31 02:50:21;;;;;;;4.88;1.90;;;;;;;17.16;52.95;100906.16;4987162;28;20116;-80
2022/01/31 02:52:57;;;;;;;5.80;2.13;;;;;;;17.15;52.88;100901.84;4985900;28;20116;-81
2022/01/31 02:55:23;;;;;;;5.45;2.40;;;;;;;17.15;53.00;100902.72;5002838;28;20105;-80
2022/01/31 02:57:48;;;;;;;4.70;2.15;;;;;;;17.15;52.95;100918.31;4985532;28;20108;-81
2022/01/31 03:00:14;;;;;;;4.85;2.03;;;;;;;17.15;52.93;100907.06;4985341;28;20030;-80
2022/01/31 03:02:39;;;;;;;5.88;2.20;;;;;;;17.14;53.23;100903.59;4986275;28;20030;-80
2022/01/31 03:05:05;;;;;;;4.35;1.95;;;;;;;17.15;52.94;100907.06;4985393;28;20057;-82
2022/01/31 03:07:31;;;;;;;5.63;2.10;;;;;;;17.13;52.88;100888.00;5011807;28;20034;-81
2022/01/31 03:09:56;;;;;;;4.57;1.90;;;;;;;17.13;52.94;100895.81;4989514;28;20022;-81
2022/01/31 03:12:23;;;;;;;4.30;2.08;;;;;;;17.14;52.89;100907.94;4995687;28;20037;-81
2022/01/31 03:14:49;;;;;;;4.53;1.88;;;;;;;17.14;52.84;100902.75;4980725;28;20038;-81
2022/01/31 03:17:14;;;;;;;4.53;2.03;;;;;;;17.14;52.91;100900.16;4992056;28;20056;-80
2022/01/31 03:19:42;;;;;;;4.65;1.98;;;;;;;17.14;52.79;100900.16;5008777;28;20053;-80
2022/01/31 03:22:08;;;;;;;5.13;2.22;;;;;;;17.12;52.89;100884.53;5011824;28;20057;-80
2022/01/31 03:24:34;;;;;;;5.30;1.92;;;;;;;17.12;52.87;100879.34;4996711;28;20027;-80
2022/01/31 03:27:00;;;;;;;5.90;2.25;;;;;;;17.12;52.81;100858.53;5010939;28;20033;-81
2022/01/31 03:29:26;;;;;;;5.13;1.92;;;;;;;17.12;52.98;100871.53;4992812;28;20400;-81
2022/01/31 03:31:51;;;;;;;4.13;1.88;;;;;;;17.12;52.87;100868.94;4974605;28;20073;-81
2022/01/31 03:34:17;;;;;;;5.80;2.05;;;;;;;17.11;52.71;100885.41;5007091;28;20026;-82
2022/01/31 03:36:43;;;;;;;6.32;2.00;;;;;;;17.10;52.48;100857.69;4989030;28;20030;-82
2022/01/31 03:39:10;;;;;;;4.70;1.92;;;;;;;17.11;52.68;100863.75;4987843;28;20050;-82
2022/01/31 03:41:36;;;;;;;4.78;2.05;;;;;;;17.11;52.78;100855.94;4987305;28;20023;-81
2022/01/31 03:44:02;;;;;;;5.03;1.90;;;;;;;17.11;52.65;100853.34;5005534;28;20042;-80
2022/01/31 03:46:28;;;;;;;6.28;2.00;;;;;;;17.10;52.70;100849.88;5005599;28;20081;-80
2022/01/31 03:48:53;;;;;;;6.60;2.45;;;;;;;17.10;52.82;100838.63;4971612;28;20026;-80
2022/01/31 03:51:20;;;;;;;4.15;1.88;;;;;;;17.10;52.56;100830.84;5004192;28;20036;-79
2022/01/31 03:53:46;;;;;;;4.55;1.70;;;;;;;17.10;52.66;100830.84;4986894;28;20034;-80
2022/01/31 03:56:12;;;;;;;4.22;1.65;;;;;;;17.12;52.41;100839.50;4986423;28;20114;-81
2022/01/31 03:58:38;;;;;;;5.72;2.03;;;;;;;17.10;52.61;100833.44;5004275;28;20066;-80
2022/01/31 04:01:03;;;;;;;5.43;2.13;;;;;;;17.10;52.35;100846.44;5004551;28;20373;-80
2022/01/31 04:03:30;;;;;;;5.50;1.90;;;;;;;17.11;52.46;100837.75;5002560;28;20034;-80
2022/01/31 04:05:55;;;;;;;4.72;1.90;;;;;;;17.09;52.45;100829.94;4985288;28;20417;-80
2022/01/31 04:08:21;;;;;;;4.55;2.22;;;;;;;17.10;52.58;100800.47;5001859;28;20034;-80
2022/01/31 04:10:47;;;;;;;4.50;1.80;;;;;;;17.08;52.49;100817.84;4984978;28;20424;-80
2022/01/31 04:13:16;;;;;;;5.10;2.03;;;;;;;17.09;52.53;100805.69;4984078;28;20038;-80
2022/01/31 04:15:42;;;;;;;7.90;2.47;;;;;;;17.09;52.16;100813.50;5001336;28;20061;-80
2022/01/31 04:18:07;;;;;;;5.30;1.90;;;;;;;17.08;52.32;100797.03;4984799;28;20026;-80
2022/01/31 04:20:33;;;;;;;5.25;1.95;;;;;;;17.09;52.07;100798.75;5002134;28;20377;-81
2022/01/31 04:23:04;;;;;;;3.97;1.70;;;;;;;17.09;52.49;100800.50;4983513;28;20026;-80
2022/01/31 04:28:02;;;;;;;5.60;2.00;;;;;;;17.07;52.20;100790.09;4982224;28;20483;-79
2022/01/31 04:30:36;;;;;;;7.78;2.13;;;;;;;17.09;52.37;100800.50;4999309;28;20026;-80
2022/01/31 04:33:01;;;;;;;6.75;1.83;;;;;;;17.06;52.11;100810.03;4982417;28;20031;-80
2022/01/31 04:35:27;;;;;;;7.20;2.00;;;;;;;17.07;52.36;100849.88;4999742;28;20029;-80
2022/01/31 04:37:53;;;;;;;5.45;1.98;;;;;;;17.06;52.25;100841.25;4981553;28;20062;-80
2022/01/31 04:40:18;;;;;;;6.43;2.17;;;;;;;17.06;52.31;100838.63;4965230;28;20027;-80
2022/01/31 04:42:45;;;;;;;5.65;2.00;;;;;;;17.05;52.10;100829.13;4998759;28;20389;-80
2022/01/31 04:45:11;;;;;;;6.72;1.92;;;;;;;17.07;52.26;100831.69;4981567;28;20469;-81
2022/01/31 04:47:37;;;;;;;4.95;1.90;;;;;;;17.06;52.25;100815.25;4996599;28;20118;-79
2022/01/31 04:50:04;;;;;;;6.55;2.00;;;;;;;17.05;51.99;100823.94;4981818;28;20058;-80
2022/01/31 04:52:30;;;;;;;5.35;1.90;;;;;;;17.05;52.06;100815.28;4964736;28;20034;-80
2022/01/31 04:54:56;;;;;;;5.95;1.90;;;;;;;17.05;51.99;100807.47;4964714;28;20037;-80
2022/01/31 04:57:22;;;;;;;4.55;2.00;;;;;;;17.04;51.98;100816.13;4980726;28;20061;-80
2022/01/31 04:59:49;;;;;;;5.38;1.90;;;;;;;17.02;51.95;100782.34;4964288;28;20417;-80
2022/01/31 05:02:16;;;;;;;4.15;1.90;;;;;;;17.04;52.09;100779.72;4998206;28;20029;-82
2022/01/31 05:04:41;;;;;;;4.47;1.70;;;;;;;17.04;51.96;100769.34;4979587;28;20023;-80
2022/01/31 05:07:06;;;;;;;7.05;1.92;;;;;;;17.03;52.06;100768.47;4979814;28;20060;-80
2022/01/31 05:09:32;;;;;;;5.15;1.92;;;;;;;17.03;51.93;100788.41;4980560;28;20102;-80
2022/01/31 05:11:57;;;;;;;5.57;1.90;;;;;;;17.02;51.82;100779.72;4980179;28;20034;-80
2022/01/31 05:14:23;;;;;;;6.32;2.17;;;;;;;17.01;52.00;100796.22;4980346;28;20022;-79
2022/01/31 05:16:50;;;;;;;4.57;1.90;;;;;;;17.02;51.95;100782.34;4980403;28;20041;-79
2022/01/31 05:19:16;;;;;;;5.80;2.00;;;;;;;17.01;51.90;100784.97;4979893;28;20092;-79
2022/01/31 05:21:41;;;;;;;4.43;1.85;;;;;;;17.02;52.01;100782.34;4979865;28;20022;-80
2022/01/31 05:24:07;;;;;;;5.53;1.73;;;;;;;17.02;52.03;100787.53;4985779;28;20432;-80
2022/01/31 05:26:33;;;;;;;4.82;1.90;;;;;;;17.02;52.13;100790.13;4966308;28;20042;-78
2022/01/31 05:28:59;;;;;;;6.55;2.05;;;;;;;17.03;52.01;100793.63;4980096;28;20026;-78
2022/01/31 05:31:24;;;;;;;4.88;1.90;;;;;;;17.03;51.96;100796.22;4969304;28;20030;-78
2022/01/31 05:33:49;;;;;;;4.30;1.83;;;;;;;17.05;51.93;100804.88;4986690;28;20077;-77
2022/01/31 05:36:15;;;;;;;5.57;1.83;;;;;;;17.06;51.77;100811.78;5001787;28;20030;-78
2022/01/31 05:46:19;;;;;;;5.72;1.85;;;;;;;17.04;52.01;100803.97;5292797;23;20490;-85
2022/01/31 05:48:51;;;;;;;4.13;1.63;;;;;;;17.04;51.82;100790.97;5041474;28;20060;-86
2022/01/31 05:51:21;;;;;;;4.13;1.90;;;;;;;17.06;51.82;100788.38;5041723;28;20010;-85
2022/01/31 05:53:49;;;;;;;5.77;2.03;;;;;;;17.06;51.69;100806.59;5699022;23;20017;-80
2022/01/31 05:56:17;;;;;;;5.10;2.15;;;;;;;17.04;51.75;100785.78;5016046;28;20030;-85
2022/01/31 05:58:43;;;;;;;5.88;1.90;;;;;;;17.03;51.94;100807.47;5017076;28;20027;-86
2022/01/31 06:01:09;;;;;;;4.40;1.70;;;;;;;17.05;51.69;100784.06;5017475;28;20094;-87
2022/01/31 06:03:37;;;;;;;6.35;1.58;;;;;;;17.05;51.75;100795.31;5017386;28;20010;-87
2022/01/31 06:06:04;;;;;;;5.15;1.83;;;;;;;17.05;51.60;100792.72;5018452;28;20042;-84
2022/01/31 06:08:30;;;;;;;6.63;1.58;;;;;;;17.06;51.64;100804.84;5018571;28;20057;-85
2022/01/31 06:10:59;;;;;;;8.25;3.00;;;;;;;17.06;51.72;100775.38;5018449;28;20022;-82
2022/01/31 06:13:28;;;;;;;15.85;4.50;;;;;;;17.10;51.86;100779.69;5017083;28;20022;-81
2022/01/31 06:15:54;;;;;;;14.80;5.18;;;;;;;17.12;51.87;100782.28;5014071;28;20034;-78
2022/01/31 06:18:20;;;;;;;12.65;4.43;;;;;;;17.13;51.94;100782.25;5010068;28;20030;-82
2022/01/31 06:20:46;;;;;;;10.95;3.88;;;;;;;17.14;51.75;100772.72;5017899;28;20041;-77
2022/01/31 06:23:15;;;;;;;14.45;4.10;;;;;;;17.15;51.89;100784.84;5006873;28;20108;-78
2022/01/31 06:25:49;;;;;;;9.25;3.40;;;;;;;17.15;51.83;100771.84;5010953;28;20029;-83
2022/01/31 06:28:14;;;;;;;8.98;3.40;;;;;;;17.14;52.16;100796.13;5017733;28;20049;-82
2022/01/31 06:30:42;;;;;;;8.00;3.17;;;;;;;17.15;51.99;100777.03;5016703;28;20054;-82
2022/01/31 06:33:08;;;;;;;8.68;3.45;;;;;;;17.15;52.08;100766.63;5016275;28;20048;-82
2022/01/31 06:35:36;;;;;;;11.30;3.05;;;;;;;17.16;52.05;100771.84;5014836;28;20007;-82
2022/01/31 06:38:02;;;;;;;9.13;3.38;;;;;;;17.17;51.91;100770.09;5015178;28;20117;-82
2022/01/31 06:40:28;;;;;;;13.50;3.35;;;;;;;17.17;52.05;100790.91;5014802;28;20046;-82
2022/01/31 06:42:53;;;;;;;11.88;3.22;;;;;;;17.18;52.24;100764.00;5014219;28;20036;-82
2022/01/31 06:45:19;;;;;;;8.18;2.83;;;;;;;17.15;52.14;100772.69;5015161;28;20034;-82
2022/01/31 06:47:44;;;;;;;8.13;2.83;;;;;;;17.18;52.18;100766.59;5015222;28;20023;-83
2022/01/31 06:50:10;;;;;;;6.82;2.80;;;;;;;17.17;52.05;100783.09;5013348;28;20030;-82
2022/01/31 06:52:39;;;;;;;7.43;2.70;;;;;;;17.17;52.16;100789.16;5019114;28;20061;-83
2022/01/31 06:58:15;;;;;;;5.90;2.55;;;;;;;17.17;52.10;100783.09;5644067;23;20025;-83
2022/01/31 07:03:46;;;;;;;10.07;2.67;;;;;;;17.19;52.01;100778.75;5579367;23;20074;-83
2022/01/31 07:06:14;;;;;;;6.78;2.72;;;;;;;17.17;52.09;100802.16;5020862;28;20017;-83
2022/01/31 07:11:21;;;;;;;7.15;3.00;;;;;;;17.20;52.09;100783.06;5817672;23;20040;-83
2022/01/31 07:13:49;;;;;;;8.18;2.58;;;;;;;17.19;52.02;100796.94;5038969;28;20052;-84
2022/01/31 07:16:14;;;;;;;7.07;2.53;;;;;;;17.19;51.92;100786.53;5033458;28;20025;-84
2022/01/31 07:19:07;;;;;;;6.45;2.45;;;;;;;17.20;51.86;100786.53;5034144;28;20030;-82
2022/01/31 07:42:47;;;;;;;6.10;2.28;;;;;;;17.25;51.84;100799.50;4978649;29;20057;-83
2022/01/31 07:46:09;;;;;;;6.30;2.25;;;;;;;17.24;51.74;100819.41;4978719;29;20039;-83
2022/01/31 07:49:05;;;;;;;7.97;2.65;;;;;;;17.22;51.82;100790.00;4962737;29;20065;-84
2022/01/31 07:51:47;;;;;;;4.90;2.40;;;;;;;17.25;51.91;100795.16;4962647;29;20015;-83
2022/01/31 07:54:43;;;;;;;6.18;2.10;;;;;;;17.25;51.88;100835.91;4977982;29;20031;-83
2022/01/31 08:00:04;;;;;;;6.13;2.22;;;;;;;17.25;51.75;100854.13;5898506;23;20042;-83
2022/01/31 08:02:30;;;;;;;5.97;2.25;;;;;;;17.26;51.76;100843.69;5021371;28;20048;-83
2022/01/31 08:04:58;;;;;;;8.50;2.53;;;;;;;17.26;51.92;100837.63;5021186;28;20029;-83
2022/01/31 08:07:24;;;;;;;5.55;2.08;;;;;;;17.27;51.92;100847.16;5021145;28;20083;-83
2022/01/31 08:09:53;;;;;;;6.40;2.35;;;;;;;17.26;51.78;100848.88;5020939;28;20010;-84
2022/01/31 08:12:18;;;;;;;7.55;2.50;;;;;;;17.27;51.83;100841.97;5005808;28;20045;-83
2022/01/31 08:14:47;;;;;;;5.28;2.22;;;;;;;17.28;51.73;100874.88;5022863;28;20032;-84
2022/01/31 08:17:13;;;;;;;9.15;2.75;;;;;;;17.29;51.61;100861.03;5022805;28;20030;-83
2022/01/31 08:19:39;;;;;;;5.70;2.35;;;;;;;17.27;51.32;100887.03;5022785;28;20025;-83
2022/01/31 08:22:04;;;;;;;5.57;2.30;;;;;;;17.29;51.56;100881.84;5022615;28;20026;-83
2022/01/31 08:24:30;;;;;;;6.18;2.40;;;;;;;17.28;51.56;100869.69;5022736;28;20033;-83
2022/01/31 08:26:56;;;;;;;7.03;2.22;;;;;;;17.28;51.41;100911.28;5022787;28;20049;-83
2022/01/31 08:29:32;;;;;;;7.47;2.47;;;;;;;17.30;51.57;100883.53;5022556;28;20012;-83
2022/01/31 08:32:05;;;;;;;6.25;2.47;;;;;;;17.31;51.38;100895.69;5022747;28;20014;-83
2022/01/31 08:50:02;;;;;;;6.65;2.15;;;;;;;17.33;51.31;100916.47;5322336;23;20054;-82
2022/01/31 08:52:27;;;;;;;5.72;2.20;;;;;;;17.33;51.28;100934.66;5017224;28;20090;-83
2022/01/31 08:54:53;;;;;;;7.13;2.60;;;;;;;17.33;51.61;100922.53;4999844;28;20013;-83
2022/01/31 08:57:19;;;;;;;6.75;2.67;;;;;;;17.34;51.59;100941.63;5000576;28;20051;-83
2022/01/31 09:05:37;;;;;;;7.93;2.50;;;;;;;17.35;51.45;100932.91;5580528;23;20038;-83
2022/01/31 09:08:07;;;;;;;4.32;2.08;;;;;;;17.34;51.59;100941.63;5041398;28;20044;-83
2022/01/31 09:10:39;;;;;;;4.47;2.15;;;;;;;17.34;51.32;100945.06;5041205;28;20016;-83
2022/01/31 09:13:06;;;;;;;5.80;2.30;;;;;;;17.36;51.36;100938.13;5025435;28;20022;-83
2022/01/31 09:15:34;;;;;;;5.53;2.28;;;;;;;17.36;51.34;100943.31;5057222;28;20016;-83
2022/01/31 09:18:08;;;;;;;5.00;2.22;;;;;;;17.37;51.32;100938.97;5755968;23;20072;-83
2022/01/31 09:20:34;;;;;;;5.50;2.25;;;;;;;17.38;51.35;100949.38;5004391;28;20036;-83
2022/01/31 09:23:01;;;;;;;9.43;2.63;;;;;;;17.37;51.45;100960.66;5018734;28;20125;-82
2022/01/31 09:25:30;;;;;;;5.57;2.30;;;;;;;17.36;51.18;100961.53;5018765;28;20102;-82
2022/01/31 09:27:57;;;;;;;6.63;2.70;;;;;;;17.35;51.26;100970.19;5020781;28;20017;-83
2022/01/31 09:30:27;;;;;;;6.10;2.53;;;;;;;17.35;51.22;100977.16;5021110;28;20025;-83
2022/01/31 09:32:58;;;;;;;5.30;2.30;;;;;;;17.35;51.10;100987.53;5021199;28;20029;-83
2022/01/31 09:35:26;;;;;;;7.93;2.50;;;;;;;17.33;51.47;100979.75;5019254;28;20045;-83
2022/01/31 09:37:52;;;;;;;6.70;2.75;;;;;;;17.33;51.17;100991.91;5395968;23;20119;-82
2022/01/31 09:40:24;;;;;;;6.05;2.42;;;;;;;17.32;51.28;100985.84;5292532;23;20055;-82
2022/01/31 09:43:26;;;;;;;6.85;2.47;;;;;;;17.32;51.27;100998.84;5046895;23;20085;-83
2022/01/31 09:45:59;;;;;;;7.05;2.97;;;;;;;17.31;51.23;101017.94;5014947;28;20408;-83
2022/01/31 09:48:33;;;;;;;6.88;2.47;;;;;;;17.30;51.26;101017.94;5014866;28;20007;-83
2022/01/31 09:56:15;;;;;;;7.55;2.67;;;;;;;17.29;51.33;101048.28;5635738;23;20050;-83
2022/01/31 09:58:47;;;;;;;7.25;2.60;;;;;;;17.30;51.12;101023.13;5037557;28;20010;-83
2022/01/31 10:36:24;;;;;;;8.75;2.60;;;;;;;17.24;51.25;101104.66;5489442;23;20037;-83
2022/01/31 10:45:40;;;;;;;8.75;2.85;;;;;;;17.22;50.71;101089.06;5041762;28;20029;-83
2022/01/31 10:59:11;;;;;;;7.65;2.83;;;;;;;17.23;51.01;101116.78;5360125;23;20054;-82
2022/01/31 11:01:38;;;;;;;8.40;3.03;;;;;;;17.24;50.97;101143.66;5021725;28;20026;-78
2022/01/31 11:04:10;;;;;;;10.25;3.53;;;;;;;17.23;51.01;101145.41;5004454;28;20464;-79
2022/01/31 11:06:39;;;;;;;8.57;3.60;;;;;;;17.23;50.95;101135.00;5019623;28;20052;-79
2022/01/31 11:09:08;;;;;;;6.82;2.85;;;;;;;17.24;50.91;101133.25;5018010;28;20383;-79
2022/01/31 11:11:35;;;;;;;8.75;3.13;;;;;;;17.24;51.17;101148.88;5017741;28;20055;-79
2022/01/31 11:14:02;;;;;;;7.18;2.85;;;;;;;17.25;50.92;101124.59;5018091;28;20018;-78
2022/01/31 11:16:29;;;;;;;8.18;3.10;;;;;;;17.24;50.80;101130.66;5017621;28;20468;-78
2022/01/31 11:18:58;;;;;;;7.95;2.95;;;;;;;17.24;50.83;101134.13;5017117;28;20116;-78
2022/01/31 11:21:28;;;;;;;11.02;3.40;;;;;;;17.24;51.03;101135.84;5000726;28;20037;-78
2022/01/31 11:24:00;;;;;;;9.70;2.95;;;;;;;17.25;51.01;101155.81;5016767;28;20057;-78
2022/01/31 11:26:34;;;;;;;9.82;2.90;;;;;;;17.23;50.98;101153.19;5016995;28;20431;-78
2022/01/31 11:29:00;;;;;;;9.05;2.92;;;;;;;17.24;51.13;101161.88;5016306;28;20069;-78
2022/01/31 11:31:26;;;;;;;9.73;3.25;;;;;;;17.24;51.09;101162.72;5016282;28;20034;-77
2022/01/31 11:33:53;;;;;;;8.10;3.20;;;;;;;17.22;50.83;101172.28;5016756;28;20030;-79
2022/01/31 11:36:19;;;;;;;9.60;3.20;;;;;;;17.24;51.19;101177.47;5016018;28;20029;-77
2022/01/31 11:38:45;;;;;;;7.63;3.30;;;;;;;17.24;51.42;101185.28;4984522;28;20076;-78
2022/01/31 11:41:11;;;;;;;9.02;3.10;;;;;;;17.24;50.92;101188.72;5017772;28;20026;-78
2022/01/31 11:43:37;;;;;;;7.00;2.78;;;;;;;17.23;50.85;101197.41;5017154;28;20068;-78
2022/01/31 11:46:04;;;;;;;9.93;3.50;;;;;;;17.22;51.01;101190.50;5016475;28;20109;-78
2022/01/31 11:48:30;;;;;;;8.45;3.15;;;;;;;17.23;51.06;101197.41;5016271;28;20124;-77
2022/01/31 11:51:01;;;;;;;9.93;3.40;;;;;;;17.22;50.99;101206.09;5016242;28;20464;-77
2022/01/31 11:53:36;;;;;;;9.63;3.10;;;;;;;17.22;50.96;101208.72;5016045;28;20113;-78
2022/01/31 11:56:18;;;;;;;9.00;3.08;;;;;;;17.22;51.04;101208.72;5015389;28;20021;-78
2022/01/31 11:58:47;;;;;;;11.50;3.28;;;;;;;17.21;51.06;101206.97;5016140;28;20103;-78
2022/01/31 12:01:23;;;;;;;7.97;3.00;;;;;;;17.21;51.12;101227.75;5016702;28;20034;-78
2022/01/31 12:03:59;;;;;;;8.20;2.92;;;;;;;17.21;50.92;101238.16;4999846;28;20034;-78
2022/01/31 12:06:27;;;;;;;8.50;3.25;;;;;;;17.21;50.97;101235.56;4999398;28;20037;-78
2022/01/31 12:08:54;;;;;;;10.13;3.17;;;;;;;17.21;51.25;101245.97;5015036;28;20029;-78
2022/01/31 12:11:27;;;;;;;12.13;3.40;;;;;;;17.22;51.01;101254.63;5014810;28;20034;-78
2022/01/31 12:14:00;;;;;;;7.80;3.25;;;;;;;17.21;51.01;101250.31;5014746;28;20040;-78
2022/01/31 12:24:32;;;;;;;11.20;3.53;;;;;;;17.21;50.97;101263.31;5006024;28;20021;-84
2022/01/31 12:27:12;;;;;;;8.27;3.38;;;;;;;17.20;51.17;101254.66;5243909;23;20062;-78
2022/01/31 12:29:45;;;;;;;9.85;3.55;;;;;;;17.21;50.99;101263.31;4995824;28;20026;-78
2022/01/31 12:32:21;;;;;;;9.55;3.65;;;;;;;17.20;50.99;101264.16;4994558;28;20030;-78
2022/01/31 12:34:55;;;;;;;9.23;3.40;;;;;;;17.19;51.13;101260.72;4994440;28;20027;-79
2022/01/31 12:37:23;;;;;;;9.40;3.42;;;;;;;17.19;50.92;101250.31;4994430;28;20026;-78
2022/01/31 12:47:34;;;;;;;7.93;3.13;;;;;;;17.19;51.08;101302.31;5362784;23;20053;-79
2022/01/31 12:50:20;;;;;;;9.80;3.50;;;;;;;17.20;50.88;101305.78;4981101;28;20423;-79
2022/01/31 12:52:46;;;;;;;10.73;3.60;;;;;;;17.19;50.53;101301.47;5013803;28;20129;-79
2022/01/31 12:55:12;;;;;;;8.23;3.35;;;;;;;17.19;50.87;101311.88;5014871;28;20092;-79
2022/01/31 12:57:52;;;;;;;9.02;3.42;;;;;;;17.18;51.06;101308.41;5000465;28;20032;-79
2022/01/31 13:00:39;;;;;;;8.88;3.50;;;;;;;17.18;50.85;101318.81;5016713;28;20399;-79
2022/01/31 13:03:05;;;;;;;9.77;3.45;;;;;;;17.18;50.78;101308.41;5015929;28;20022;-79
2022/01/31 13:05:35;;;;;;;8.68;3.40;;;;;;;17.19;50.89;101306.66;5014972;28;20361;-79
2022/01/31 13:10:42;;;;;;;9.63;3.83;;;;;;;17.18;50.91;101310.13;5579868;23;20157;-84
2022/01/31 13:13:09;;;;;;;11.10;3.50;;;;;;;17.19;50.96;101309.25;4999876;28;20077;-84
2022/01/31 13:15:35;;;;;;;9.95;3.42;;;;;;;17.17;50.84;101317.06;5002336;28;20086;-84
2022/01/31 13:18:08;;;;;;;10.80;3.80;;;;;;;17.18;50.61;101317.91;4980482;28;20072;-78
2022/01/31 13:20:35;;;;;;;;;;;;;;;17.18;50.79;101320.53;4978818;28;20046;-78
2022/01/31 13:23:02;;;;;;;10.95;3.72;;;;;;;17.18;50.67;101330.91;4984052;28;19902;-84
2022/01/31 13:28:09;;;;;;;10.20;3.38;;;;;;;17.16;50.70;101346.53;5744865;23;20039;-83
2022/01/31 13:33:10;;;;;;;10.88;4.07;;;;;;;17.19;50.53;101337.88;5847697;23;20051;-79
2022/01/31 13:35:37;;;;;;;10.27;3.65;;;;;;;17.18;50.38;101356.94;4959154;28;20023;-79
2022/01/31 13:38:09;;;;;;;10.63;3.65;;;;;;;17.18;50.63;101339.63;4959891;28;20481;-79
2022/01/31 13:40:43;;;;;;;11.25;3.58;;;;;;;17.19;50.51;101345.69;4959316;28;20027;-79
2022/01/31 13:43:13;;;;;;;11.25;3.67;;;;;;;17.18;50.67;101350.03;4974852;28;20477;-79
2022/01/31 13:45:55;;;;;;;11.63;3.95;;;;;;;17.18;50.47;101369.94;4974983;28;20041;-79
2022/01/31 13:48:37;;;;;;;11.88;3.30;;;;;;;17.17;50.91;101368.22;4974421;28;20054;-79
2022/01/31 13:51:05;;;;;;;8.77;3.42;;;;;;;17.17;50.57;101384.69;4974138;28;20078;-79
2022/01/31 13:53:36;;;;;;;10.40;3.83;;;;;;;17.18;50.46;101388.13;4974183;28;20057;-79
2022/01/31 13:56:05;;;;;;;10.77;3.95;;;;;;;17.17;50.55;101389.03;4973844;28;20026;-79
2022/01/31 13:58:32;;;;;;;9.93;3.65;;;;;;;17.16;50.81;101382.97;4974297;28;20022;-79
2022/01/31 14:00:59;;;;;;;9.45;3.60;;;;;;;17.16;50.53;101400.28;5158572;23;20090;-79
2022/01/31 14:09:33;;;;;;;10.35;3.95;;;;;;;17.16;50.47;101426.28;5369424;23;20042;-83
2022/01/31 14:12:00;;;;;;;12.20;3.90;;;;;;;17.16;50.37;101432.38;5009733;28;20042;-78
2022/01/31 14:14:28;;;;;;;11.02;4.05;;;;;;;17.16;50.45;101445.38;4997958;28;20026;-78
2022/01/31 14:16:54;;;;;;;11.88;4.22;;;;;;;17.16;50.64;101427.16;5003153;28;20014;-83
2022/01/31 14:37:34;;;;;;;11.43;3.88;;;;;;;17.15;50.45;101495.63;5596297;23;20114;-78
2022/01/31 14:40:18;;;;;;;9.13;3.40;;;;;;;17.14;50.41;101493.06;4981257;28;20037;-78
2022/01/31 14:43:09;;;;;;;11.02;3.70;;;;;;;17.13;50.49;101505.16;5012885;28;20029;-78
2022/01/31 14:48:10;;;;;;;9.40;3.60;;;;;;;17.13;50.68;101506.91;5254502;23;20061;-84
2022/01/31 14:50:40;;;;;;;11.23;4.05;;;;;;;17.13;50.56;101525.97;5035016;28;20021;-84
2022/01/31 14:53:19;;;;;;;10.15;3.78;;;;;;;17.11;50.37;101519.91;5023845;28;20112;-78
2022/01/31 14:55:50;;;;;;;10.02;3.97;;;;;;;17.12;50.42;101532.06;5012872;28;20380;-78
2022/01/31 14:58:16;;;;;;;10.38;4.07;;;;;;;17.13;50.41;101558.91;5013054;28;20026;-78
2022/01/31 15:00:44;;;;;;;10.18;3.70;;;;;;;17.12;50.25;101565.84;5013224;28;20491;-78
2022/01/31 15:03:12;;;;;;;9.52;3.65;;;;;;;17.12;50.40;101585.81;5037542;28;20029;-83
2022/01/31 15:08:16;;;;;;;10.13;3.08;;;;;;;17.12;50.51;101583.19;5164426;23;20045;-83
2022/01/31 15:10:44;;;;;;;9.55;3.83;;;;;;;17.11;50.40;101577.09;5040483;28;20065;-83
2022/01/31 15:13:10;;;;;;;11.15;4.03;;;;;;;17.11;50.16;101590.09;5388139;23;20070;-78
2022/01/31 15:15:44;;;;;;;10.50;3.70;;;;;;;17.11;50.27;101600.50;4985706;28;20061;-84
2022/01/31 15:18:10;;;;;;;10.15;3.45;;;;;;;17.11;50.30;101615.25;5038755;28;20021;-84
2022/01/31 15:20:36;;;;;;;12.20;3.58;;;;;;;17.09;50.19;101591.84;5040498;28;20030;-85
2022/01/31 15:23:02;;;;;;;10.50;3.72;;;;;;;17.10;50.38;101604.00;5027440;28;20026;-78
2022/01/31 15:25:28;;;;;;;9.82;3.60;;;;;;;17.11;50.04;101612.66;5002051;28;20026;-78
2022/01/31 15:27:55;;;;;;;7.75;3.38;;;;;;;17.11;50.10;101641.25;5012442;28;20018;-83
2022/01/31 15:30:23;;;;;;;9.65;3.75;;;;;;;17.10;50.11;101647.34;5022572;28;20022;-85
2022/01/31 15:32:49;;;;;;;8.32;3.40;;;;;;;17.12;50.17;101653.41;5351143;23;20053;-78
2022/01/31 15:35:15;;;;;;;12.07;3.92;;;;;;;17.11;50.10;101633.47;4981474;28;20018;-79
2022/01/31 15:46:09;;;;;;;11.98;3.97;;;;;;;17.12;50.21;101679.44;5000689;23;20061;-75
2022/01/31 15:48:35;;;;;;;10.80;3.60;;;;;;;17.12;50.17;101682.88;5014363;28;20194;-76
2022/01/31 15:51:01;;;;;;;8.68;3.50;;;;;;;17.11;50.25;101675.94;5032641;28;20018;-75
2022/01/31 15:53:27;;;;;;;8.57;3.90;;;;;;;17.13;50.17;101678.56;4989489;28;20034;-76
2022/01/31 15:55:53;;;;;;;8.80;3.28;;;;;;;17.11;50.13;101695.88;4998800;28;20467;-80
2022/01/31 15:58:18;;;;;;;8.35;3.28;;;;;;;17.16;50.14;101710.66;4996524;28;20024;-81
2022/01/31 16:00:46;;;;;;;12.70;3.90;;;;;;;17.13;50.22;101712.34;5012785;28;20602;-81
2022/01/31 16:03:14;;;;;;;11.52;3.85;;;;;;;17.13;50.09;101704.56;5028728;28;20030;-81
2022/01/31 16:05:41;;;;;;;10.93;4.25;;;;;;;17.11;50.25;101716.69;5016465;28;20022;-81
2022/01/31 16:08:07;;;;;;;8.10;3.30;;;;;;;17.09;50.29;101708.84;5029698;28;20038;-83
2022/01/31 16:10:34;;;;;;;11.85;4.22;;;;;;;17.08;50.08;101714.06;5005540;28;20097;-82
2022/01/31 16:13:23;;;;;;;12.48;4.13;;;;;;;17.06;50.23;101732.25;5013364;28;20025;-80
2022/01/31 16:15:50;;;;;;;9.18;3.40;;;;;;;17.05;50.11;101728.78;4994035;28;20030;-84
2022/01/31 16:18:17;;;;;;;9.85;3.72;;;;;;;17.03;50.19;101740.91;5029676;28;20025;-81
2022/01/31 16:20:43;;;;;;;11.13;3.60;;;;;;;17.04;50.20;101739.19;5040316;28;20036;-86
2022/01/31 16:23:08;;;;;;;10.95;3.33;;;;;;;17.04;50.25;101752.19;4985558;28;20033;-86
2022/01/31 16:25:34;;;;;;;10.55;3.40;;;;;;;17.02;50.13;101744.34;5024576;28;20021;-80
2022/01/31 16:28:04;;;;;;;8.70;3.72;;;;;;;17.03;50.24;101755.66;5015540;28;20041;-81
2022/01/31 16:30:31;;;;;;;10.00;3.65;;;;;;;17.03;49.86;101786.84;5023419;28;20021;-80
2022/01/31 16:32:57;;;;;;;10.20;3.70;;;;;;;17.03;50.20;101760.84;5020078;28;20026;-81
2022/01/31 16:35:22;;;;;;;11.00;3.58;;;;;;;17.04;49.89;101780.78;5027386;28;20017;-79